CheckWX is a tool to help pilots better visualize weather data.  It is not intended as a substitute for an official pre-flight weather briefing.

11:42:07 UTC

KOLV METAR
Olive Branch Airport
Olive Branch, Mississippi, USA
Current

7 mins ago

KOLV 151135Z AUTO 17004KT 10SM SCT012 BKN022 OVC026 17/15 A3001 RMK A01
Observed
Oct-15 @ 11:35 UTC
Wind
  • 170° at 4 KTS
Visibility
10 SM
Flight Rules
MVFR
Cloud Levels
  • Scattered at 1,200' AGL
  • Broken at 2,200' AGL
  • Overcast at 2,600' AGL
Temperature
17°C / 63°F
Dewpoint
15°C / 59°F
Humidity
88%
Altimeter
30.01" Hg
Pressure
1016.22 hPa
Previous

27 mins ago

KOLV 151115Z AUTO 16007KT 10SM SCT019 OVC026 16/15 A3001 RMK A01
Observed
Oct-15 @ 11:15 UTC
Wind
  • 160° at 7 KTS
Visibility
10 SM
Flight Rules
MVFR
Cloud Levels
  • Scattered at 1,900' AGL
  • Overcast at 2,600' AGL
Temperature
16°C / 61°F
Dewpoint
15°C / 59°F
Humidity
94%
Altimeter
30.01" Hg
Pressure
1016.22 hPa
Previous

47 mins ago

KOLV 151055Z AUTO 17007KT 10SM BKN019 OVC024 17/14 A3001 RMK A01
Observed
Oct-15 @ 10:55 UTC
Wind
  • 170° at 7 KTS
Visibility
10 SM
Flight Rules
MVFR
Cloud Levels
  • Broken at 1,900' AGL
  • Overcast at 2,400' AGL
Temperature
17°C / 63°F
Dewpoint
14°C / 57°F
Humidity
83%
Altimeter
30.01" Hg
Pressure
1016.22 hPa